sensor_id;sensor_type;location;lat;lon;timestamp;temperature;humidity
51783;DHT22;37845;53.196;5.638;2023-03-01T00:01:33;3.10;99.90
51783;DHT22;37845;53.196;5.638;2023-03-01T00:03:59;2.80;99.90
51783;DHT22;37845;53.196;5.638;2023-03-01T00:06:25;1.40;99.90
51783;DHT22;37845;53.196;5.638;2023-03-01T00:08:52;3.00;99.90
51783;DHT22;37845;53.196;5.638;2023-03-01T00:11:22;2.80;99.90
51783;DHT22;37845;53.196;5.638;2023-03-01T00:13:50;2.10;99.90
51783;DHT22;37845;53.196;5.638;2023-03-01T00:16:21;1.40;99.90
51783;DHT22;37845;53.196;5.638;2023-03-01T00:18:47;2.80;99.90
51783;DHT22;37845;53.196;5.638;2023-03-01T00:21:13;1.40;99.90
51783;DHT22;37845;53.196;5.638;2023-03-01T00:23:39;2.70;99.90
51783;DHT22;37845;53.196;5.638;2023-03-01T00:26:07;2.90;99.90
51783;DHT22;37845;53.196;5.638;2023-03-01T00:28:33;3.00;99.90
51783;DHT22;37845;53.196;5.638;2023-03-01T00:31:07;2.00;99.90
51783;DHT22;37845;53.196;5.638;2023-03-01T00:33:33;3.10;99.90
51783;DHT22;37845;53.196;5.638;2023-03-01T00:36:00;1.30;99.90
51783;DHT22;37845;53.196;5.638;2023-03-01T00:38:26;2.70;99.90
51783;DHT22;37845;53.196;5.638;2023-03-01T00:40:51;1.20;99.90
51783;DHT22;37845;53.196;5.638;2023-03-01T00:43:17;2.20;99.90
51783;DHT22;37845;53.196;5.638;2023-03-01T00:45:44;2.80;99.90
51783;DHT22;37845;53.196;5.638;2023-03-01T00:48:10;2.60;99.90
51783;DHT22;37845;53.196;5.638;2023-03-01T00:50:36;0.90;99.90
51783;DHT22;37845;53.196;5.638;2023-03-01T00:53:01;2.10;99.90
51783;DHT22;37845;53.196;5.638;2023-03-01T00:55:27;2.20;99.90
51783;DHT22;37845;53.196;5.638;2023-03-01T00:57:53;2.70;99.90
51783;DHT22;37845;53.196;5.638;2023-03-01T01:00:19;0.70;99.90
51783;DHT22;37845;53.196;5.638;2023-03-01T01:02:55;0.80;99.90
51783;DHT22;37845;53.196;5.638;2023-03-01T01:05:21;2.40;99.90
51783;DHT22;37845;53.196;5.638;2023-03-01T01:07:47;0.80;99.90
51783;DHT22;37845;53.196;5.638;2023-03-01T01:10:13;0.80;99.90
51783;DHT22;37845;53.196;5.638;2023-03-01T01:12:46;2.50;99.90
51783;DHT22;37845;53.196;5.638;2023-03-01T01:15:13;0.70;99.90
51783;DHT22;37845;53.196;5.638;2023-03-01T01:17:42;0.90;99.90
51783;DHT22;37845;53.196;5.638;2023-03-01T01:20:08;0.70;99.90
51783;DHT22;37845;53.196;5.638;2023-03-01T01:26:23;0.60;99.90
51783;DHT22;37845;53.196;5.638;2023-03-01T01:28:50;0.70;99.90
51783;DHT22;37845;53.196;5.638;2023-03-01T01:31:17;2.60;99.90
51783;DHT22;37845;53.196;5.638;2023-03-01T01:33:43;0.70;99.90
51783;DHT22;37845;53.196;5.638;2023-03-01T01:36:09;2.40;99.90
51783;DHT22;37845;53.196;5.638;2023-03-01T01:38:36;2.40;99.90
51783;DHT22;37845;53.196;5.638;2023-03-01T01:41:03;2.60;99.90
51783;DHT22;37845;53.196;5.638;2023-03-01T01:44:28;0.70;99.90
51783;DHT22;37845;53.196;5.638;2023-03-01T01:46:37;0.70;99.90
51783;DHT22;37845;53.196;5.638;2023-03-01T01:49:25;1.90;99.90
51783;DHT22;37845;53.196;5.638;2023-03-01T01:52:00;0.60;99.90
51783;DHT22;37845;53.196;5.638;2023-03-01T01:57:29;0.80;99.90
51783;DHT22;37845;53.196;5.638;2023-03-01T02:00:00;0.70;99.90
51783;DHT22;37845;53.196;5.638;2023-03-01T02:02:33;2.00;99.90
51783;DHT22;37845;53.196;5.638;2023-03-01T02:05:10;2.80;99.90
51783;DHT22;37845;53.196;5.638;2023-03-01T02:07:39;0.60;99.90
51783;DHT22;37845;53.196;5.638;2023-03-01T02:10:06;2.40;99.90
51783;DHT22;37845;53.196;5.638;2023-03-01T02:12:32;0.60;99.90
51783;DHT22;37845;53.196;5.638;2023-03-01T02:14:59;0.70;99.90
51783;DHT22;37845;53.196;5.638;2023-03-01T02:17:25;0.60;99.90
51783;DHT22;37845;53.196;5.638;2023-03-01T02:20:00;2.00;99.90
51783;DHT22;37845;53.196;5.638;2023-03-01T02:22:33;0.60;99.90
51783;DHT22;37845;53.196;5.638;2023-03-01T02:28:41;0.60;99.90
51783;DHT22;37845;53.196;5.638;2023-03-01T02:30:43;2.10;99.90
51783;DHT22;37845;53.196;5.638;2023-03-01T02:33:29;2.40;99.90
51783;DHT22;37845;53.196;5.638;2023-03-01T02:36:04;0.90;99.90
51783;DHT22;37845;53.196;5.638;2023-03-01T02:38:32;2.10;99.90
51783;DHT22;37845;53.196;5.638;2023-03-01T02:40:58;1.80;99.90
51783;DHT22;37845;53.196;5.638;2023-03-01T02:43:31;0.40;99.90
51783;DHT22;37845;53.196;5.638;2023-03-01T02:46:04;-0.10;99.90
51783;DHT22;37845;53.196;5.638;2023-03-01T02:48:48;1.60;99.90
51783;DHT22;37845;53.196;5.638;2023-03-01T02:54:34;0.20;99.90
51783;DHT22;37845;53.196;5.638;2023-03-01T02:57:02;1.50;99.90
51783;DHT22;37845;53.196;5.638;2023-03-01T02:59:33;0.20;99.90
51783;DHT22;37845;53.196;5.638;2023-03-01T03:02:27;1.10;99.90
51783;DHT22;37845;53.196;5.638;2023-03-01T03:05:13;1.40;99.90
51783;DHT22;37845;53.196;5.638;2023-03-01T03:07:42;-0.20;99.90
51783;DHT22;37845;53.196;5.638;2023-03-01T03:10:11;1.20;99.90
51783;DHT22;37845;53.196;5.638;2023-03-01T03:12:40;-0.20;99.90
51783;DHT22;37845;53.196;5.638;2023-03-01T03:15:08;1.70;99.90
51783;DHT22;37845;53.196;5.638;2023-03-01T03:17:42;-0.30;99.90
51783;DHT22;37845;53.196;5.638;2023-03-01T03:20:11;1.40;99.90
51783;DHT22;37845;53.196;5.638;2023-03-01T03:22:42;-0.30;99.90
51783;DHT22;37845;53.196;5.638;2023-03-01T03:25:08;0.00;99.90
51783;DHT22;37845;53.196;5.638;2023-03-01T03:27:42;-0.10;99.90
51783;DHT22;37845;53.196;5.638;2023-03-01T03:30:11;0.10;99.90
51783;DHT22;37845;53.196;5.638;2023-03-01T03:32:39;-0.10;99.90
51783;DHT22;37845;53.196;5.638;2023-03-01T03:35:07;0.30;99.90
51783;DHT22;37845;53.196;5.638;2023-03-01T03:37:41;-0.10;99.90
51783;DHT22;37845;53.196;5.638;2023-03-01T03:40:27;0.30;99.90
51783;DHT22;37845;53.196;5.638;2023-03-01T03:42:54;1.30;99.90
51783;DHT22;37845;53.196;5.638;2023-03-01T03:45:20;1.60;99.90
51783;DHT22;37845;53.196;5.638;2023-03-01T03:47:46;1.10;99.90
51783;DHT22;37845;53.196;5.638;2023-03-01T03:50:13;-0.20;99.90
51783;DHT22;37845;53.196;5.638;2023-03-01T03:52:40;2.10;99.90
51783;DHT22;37845;53.196;5.638;2023-03-01T03:55:10;1.00;99.90
51783;DHT22;37845;53.196;5.638;2023-03-01T03:57:37;0.20;99.90
51783;DHT22;37845;53.196;5.638;2023-03-01T04:00:04;-1.00;99.90
51783;DHT22;37845;53.196;5.638;2023-03-01T04:02:31;0.20;99.90
51783;DHT22;37845;53.196;5.638;2023-03-01T04:04:57;0.30;99.90
51783;DHT22;37845;53.196;5.638;2023-03-01T04:07:22;2.30;99.90
51783;DHT22;37845;53.196;5.638;2023-03-01T04:09:51;0.30;99.90
51783;DHT22;37845;53.196;5.638;2023-03-01T04:12:17;2.00;99.90
51783;DHT22;37845;53.196;5.638;2023-03-01T04:14:48;1.80;99.90
51783;DHT22;37845;53.196;5.638;2023-03-01T04:17:14;2.50;99.90
51783;DHT22;37845;53.196;5.638;2023-03-01T04:19:40;0.80;99.90
51783;DHT22;37845;53.196;5.638;2023-03-01T04:22:06;2.00;99.90
51783;DHT22;37845;53.196;5.638;2023-03-01T04:24:37;2.10;99.90
51783;DHT22;37845;53.196;5.638;2023-03-01T04:27:03;2.20;99.90
51783;DHT22;37845;53.196;5.638;2023-03-01T04:29:29;0.40;99.90
51783;DHT22;37845;53.196;5.638;2023-03-01T04:31:55;1.50;99.90
51783;DHT22;37845;53.196;5.638;2023-03-01T04:34:21;0.30;99.90
51783;DHT22;37845;53.196;5.638;2023-03-01T04:36:46;0.90;99.90
51783;DHT22;37845;53.196;5.638;2023-03-01T04:39:12;0.70;99.90
51783;DHT22;37845;53.196;5.638;2023-03-01T04:41:39;2.00;99.90
51783;DHT22;37845;53.196;5.638;2023-03-01T04:44:06;2.00;99.90
51783;DHT22;37845;53.196;5.638;2023-03-01T04:46:32;2.40;99.90
51783;DHT22;37845;53.196;5.638;2023-03-01T04:48:57;0.50;99.90
51783;DHT22;37845;53.196;5.638;2023-03-01T04:51:23;2.00;99.90
51783;DHT22;37845;53.196;5.638;2023-03-01T04:53:49;1.90;99.90
51783;DHT22;37845;53.196;5.638;2023-03-01T04:56:15;2.10;99.90
51783;DHT22;37845;53.196;5.638;2023-03-01T04:58:44;2.30;99.90
51783;DHT22;37845;53.196;5.638;2023-03-01T05:01:15;0.30;99.90
51783;DHT22;37845;53.196;5.638;2023-03-01T05:03:43;0.30;99.90
51783;DHT22;37845;53.196;5.638;2023-03-01T05:06:09;1.40;99.90
51783;DHT22;37845;53.196;5.638;2023-03-01T05:08:40;1.30;99.90
51783;DHT22;37845;53.196;5.638;2023-03-01T05:11:06;0.50;99.90
51783;DHT22;37845;53.196;5.638;2023-03-01T05:13:38;2.50;99.90
51783;DHT22;37845;53.196;5.638;2023-03-01T05:16:06;0.30;99.90
51783;DHT22;37845;53.196;5.638;2023-03-01T05:18:33;0.20;99.90
51783;DHT22;37845;53.196;5.638;2023-03-01T05:21:13;0.30;99.90
51783;DHT22;37845;53.196;5.638;2023-03-01T05:23:42;2.10;99.90
51783;DHT22;37845;53.196;5.638;2023-03-01T05:26:09;1.30;99.90
51783;DHT22;37845;53.196;5.638;2023-03-01T05:28:35;0.30;99.90
51783;DHT22;37845;53.196;5.638;2023-03-01T05:31:01;1.50;99.90
51783;DHT22;37845;53.196;5.638;2023-03-01T05:33:27;1.50;99.90
51783;DHT22;37845;53.196;5.638;2023-03-01T05:35:53;0.20;99.90
51783;DHT22;37845;53.196;5.638;2023-03-01T05:38:19;2.10;99.90
51783;DHT22;37845;53.196;5.638;2023-03-01T05:40:49;2.00;99.90
51783;DHT22;37845;53.196;5.638;2023-03-01T05:43:20;1.30;99.90
51783;DHT22;37845;53.196;5.638;2023-03-01T05:45:46;1.40;99.90
51783;DHT22;37845;53.196;5.638;2023-03-01T05:48:12;0.20;99.90
51783;DHT22;37845;53.196;5.638;2023-03-01T05:50:43;1.10;99.90
51783;DHT22;37845;53.196;5.638;2023-03-01T05:53:18;0.10;99.90
51783;DHT22;37845;53.196;5.638;2023-03-01T05:55:46;-0.20;99.90
51783;DHT22;37845;53.196;5.638;2023-03-01T05:58:15;-1.80;99.90
51783;DHT22;37845;53.196;5.638;2023-03-01T06:00:42;1.10;99.90
51783;DHT22;37845;53.196;5.638;2023-03-01T06:03:11;-0.20;99.90
51783;DHT22;37845;53.196;5.638;2023-03-01T06:05:37;-0.20;99.90
51783;DHT22;37845;53.196;5.638;2023-03-01T06:08:02;0.80;99.90
51783;DHT22;37845;53.196;5.638;2023-03-01T06:10:36;-0.10;99.90
51783;DHT22;37845;53.196;5.638;2023-03-01T06:25:40;-0.30;99.90
51783;DHT22;37845;53.196;5.638;2023-03-01T06:28:06;1.20;99.90
51783;DHT22;37845;53.196;5.638;2023-03-01T06:30:32;-0.10;99.90
51783;DHT22;37845;53.196;5.638;2023-03-01T06:32:58;1.70;99.90
51783;DHT22;37845;53.196;5.638;2023-03-01T06:35:26;-0.30;99.90
51783;DHT22;37845;53.196;5.638;2023-03-01T06:37:55;1.40;99.90
51783;DHT22;37845;53.196;5.638;2023-03-01T06:40:24;-0.20;99.90
51783;DHT22;37845;53.196;5.638;2023-03-01T06:42:54;1.70;99.90
51783;DHT22;37845;53.196;5.638;2023-03-01T06:45:21;1.10;99.90
51783;DHT22;37845;53.196;5.638;2023-03-01T06:47:47;0.70;99.90
51783;DHT22;37845;53.196;5.638;2023-03-01T06:50:58;-0.10;99.90
51783;DHT22;37845;53.196;5.638;2023-03-01T06:54:01;0.00;99.90
51783;DHT22;37845;53.196;5.638;2023-03-01T06:56:42;0.20;99.90
51783;DHT22;37845;53.196;5.638;2023-03-01T06:59:14;-0.10;99.90
51783;DHT22;37845;53.196;5.638;2023-03-01T07:01:39;1.60;99.90
51783;DHT22;37845;53.196;5.638;2023-03-01T07:04:16;-0.30;99.90
51783;DHT22;37845;53.196;5.638;2023-03-01T07:06:42;1.80;99.90
51783;DHT22;37845;53.196;5.638;2023-03-01T07:09:08;1.50;99.90
51783;DHT22;37845;53.196;5.638;2023-03-01T07:11:37;1.40;99.90
51783;DHT22;37845;53.196;5.638;2023-03-01T07:14:14;1.60;99.90
51783;DHT22;37845;53.196;5.638;2023-03-01T07:19:10;0.00;99.90
51783;DHT22;37845;53.196;5.638;2023-03-01T07:21:37;0.00;99.90
51783;DHT22;37845;53.196;5.638;2023-03-01T07:24:06;2.20;99.90
51783;DHT22;37845;53.196;5.638;2023-03-01T07:26:35;0.30;99.90
51783;DHT22;37845;53.196;5.638;2023-03-01T07:29:05;1.90;99.90
51783;DHT22;37845;53.196;5.638;2023-03-01T07:31:50;2.10;99.90
51783;DHT22;37845;53.196;5.638;2023-03-01T07:34:31;1.80;99.90
51783;DHT22;37845;53.196;5.638;2023-03-01T07:37:40;0.30;99.90
51783;DHT22;37845;53.196;5.638;2023-03-01T07:40:10;0.40;99.90
51783;DHT22;37845;53.196;5.638;2023-03-01T07:42:42;0.20;99.90
51783;DHT22;37845;53.196;5.638;2023-03-01T07:45:43;0.40;99.90
51783;DHT22;37845;53.196;5.638;2023-03-01T07:51:29;-0.60;99.90
51783;DHT22;37845;53.196;5.638;2023-03-01T07:54:03;1.60;99.90
51783;DHT22;37845;53.196;5.638;2023-03-01T07:56:38;1.70;99.90
51783;DHT22;37845;53.196;5.638;2023-03-01T07:59:04;0.60;99.90
51783;DHT22;37845;53.196;5.638;2023-03-01T08:01:30;1.30;99.90
51783;DHT22;37845;53.196;5.638;2023-03-01T08:03:56;1.00;99.90
51783;DHT22;37845;53.196;5.638;2023-03-01T08:06:21;2.70;99.90
51783;DHT22;37845;53.196;5.638;2023-03-01T08:08:47;2.20;99.90
51783;DHT22;37845;53.196;5.638;2023-03-01T08:11:22;2.10;99.90
51783;DHT22;37845;53.196;5.638;2023-03-01T08:13:48;2.00;99.90
51783;DHT22;37845;53.196;5.638;2023-03-01T08:16:18;2.00;99.90
51783;DHT22;37845;53.196;5.638;2023-03-01T08:18:44;1.70;99.90
51783;DHT22;37845;53.196;5.638;2023-03-01T08:21:15;2.80;99.90
51783;DHT22;37845;53.196;5.638;2023-03-01T08:23:43;1.90;99.90
51783;DHT22;37845;53.196;5.638;2023-03-01T08:26:11;0.90;99.90
51783;DHT22;37845;53.196;5.638;2023-03-01T08:28:38;2.70;99.90
51783;DHT22;37845;53.196;5.638;2023-03-01T08:31:31;1.40;99.90
51783;DHT22;37845;53.196;5.638;2023-03-01T08:34:00;1.10;99.90
51783;DHT22;37845;53.196;5.638;2023-03-01T08:36:43;2.40;99.90
51783;DHT22;37845;53.196;5.638;2023-03-01T08:44:19;0.50;99.90
51783;DHT22;37845;53.196;5.638;2023-03-01T08:46:47;3.30;99.90
51783;DHT22;37845;53.196;5.638;2023-03-01T08:49:19;1.60;99.90
51783;DHT22;37845;53.196;5.638;2023-03-01T08:51:46;3.20;99.90
51783;DHT22;37845;53.196;5.638;2023-03-01T08:54:18;3.30;99.90
51783;DHT22;37845;53.196;5.638;2023-03-01T08:57:01;3.20;99.90
51783;DHT22;37845;53.196;5.638;2023-03-01T08:59:35;1.80;99.90
51783;DHT22;37845;53.196;5.638;2023-03-01T09:02:11;3.50;99.90
51783;DHT22;37845;53.196;5.638;2023-03-01T09:04:39;2.10;99.90
51783;DHT22;37845;53.196;5.638;2023-03-01T09:07:06;3.70;99.90
51783;DHT22;37845;53.196;5.638;2023-03-01T09:09:31;3.80;99.90
51783;DHT22;37845;53.196;5.638;2023-03-01T09:11:57;3.10;99.90
51783;DHT22;37845;53.196;5.638;2023-03-01T09:14:23;2.40;99.90
51783;DHT22;37845;53.196;5.638;2023-03-01T09:16:49;2.70;99.90
51783;DHT22;37845;53.196;5.638;2023-03-01T09:19:17;2.50;99.90
51783;DHT22;37845;53.196;5.638;2023-03-01T09:21:46;1.20;99.90
51783;DHT22;37845;53.196;5.638;2023-03-01T09:24:20;2.80;99.90
51783;DHT22;37845;53.196;5.638;2023-03-01T09:26:46;4.20;99.90
51783;DHT22;37845;53.196;5.638;2023-03-01T09:29:12;3.40;99.90
51783;DHT22;37845;53.196;5.638;2023-03-01T09:31:38;3.00;99.90
51783;DHT22;37845;53.196;5.638;2023-03-01T09:34:07;3.20;99.90
51783;DHT22;37845;53.196;5.638;2023-03-01T09:36:42;3.70;99.90
51783;DHT22;37845;53.196;5.638;2023-03-01T09:39:08;2.30;99.90
51783;DHT22;37845;53.196;5.638;2023-03-01T09:41:38;4.60;99.90
51783;DHT22;37845;53.196;5.638;2023-03-01T09:46:51;3.60;99.90
51783;DHT22;37845;53.196;5.638;2023-03-01T09:49:20;5.30;99.90
51783;DHT22;37845;53.196;5.638;2023-03-01T09:52:00;3.80;99.90
51783;DHT22;37845;53.196;5.638;2023-03-01T09:54:29;5.10;99.90
51783;DHT22;37845;53.196;5.638;2023-03-01T09:57:40;4.00;99.90
51783;DHT22;37845;53.196;5.638;2023-03-01T10:03:10;4.20;99.90
51783;DHT22;37845;53.196;5.638;2023-03-01T10:08:34;4.30;99.90
51783;DHT22;37845;53.196;5.638;2023-03-01T10:11:25;4.50;99.90
51783;DHT22;37845;53.196;5.638;2023-03-01T10:14:04;4.50;99.90
51783;DHT22;37845;53.196;5.638;2023-03-01T10:16:51;6.20;99.90
51783;DHT22;37845;53.196;5.638;2023-03-01T10:19:43;4.90;99.90
51783;DHT22;37845;53.196;5.638;2023-03-01T10:22:27;4.90;99.90
51783;DHT22;37845;53.196;5.638;2023-03-01T10:32:44;5.20;99.90
51783;DHT22;37845;53.196;5.638;2023-03-01T10:35:25;5.60;99.90
51783;DHT22;37845;53.196;5.638;2023-03-01T10:38:16;5.30;99.90
51783;DHT22;37845;53.196;5.638;2023-03-01T10:41:05;5.40;99.90
51783;DHT22;37845;53.196;5.638;2023-03-01T10:43:56;5.40;99.90
51783;DHT22;37845;53.196;5.638;2023-03-01T10:46:23;5.50;99.90
51783;DHT22;37845;53.196;5.638;2023-03-01T10:49:20;6.00;99.90
51783;DHT22;37845;53.196;5.638;2023-03-01T10:51:49;5.60;99.90
51783;DHT22;37845;53.196;5.638;2023-03-01T10:54:28;5.70;99.90
51783;DHT22;37845;53.196;5.638;2023-03-01T10:56:57;5.80;99.90
51783;DHT22;37845;53.196;5.638;2023-03-01T10:59:35;5.80;99.90
51783;DHT22;37845;53.196;5.638;2023-03-01T11:02:20;5.90;99.90
51783;DHT22;37845;53.196;5.638;2023-03-01T11:05:23;6.00;99.90
51783;DHT22;37845;53.196;5.638;2023-03-01T11:07:52;6.10;99.90
51783;DHT22;37845;53.196;5.638;2023-03-01T11:10:31;6.70;99.90
51783;DHT22;37845;53.196;5.638;2023-03-01T11:13:07;6.10;99.90
51783;DHT22;37845;53.196;5.638;2023-03-01T11:15:34;7.30;99.90
51783;DHT22;37845;53.196;5.638;2023-03-01T11:18:00;7.50;99.90
51783;DHT22;37845;53.196;5.638;2023-03-01T11:20:30;6.30;99.90
51783;DHT22;37845;53.196;5.638;2023-03-01T11:23:14;6.40;99.90
51783;DHT22;37845;53.196;5.638;2023-03-01T11:25:44;6.40;99.90
51783;DHT22;37845;53.196;5.638;2023-03-01T11:28:15;6.50;99.90
51783;DHT22;37845;53.196;5.638;2023-03-01T11:30:53;6.50;99.90
51783;DHT22;37845;53.196;5.638;2023-03-01T11:33:47;6.60;99.90
51783;DHT22;37845;53.196;5.638;2023-03-01T11:36:32;6.60;99.90
51783;DHT22;37845;53.196;5.638;2023-03-01T11:39:31;6.70;99.90
51783;DHT22;37845;53.196;5.638;2023-03-01T11:45:10;6.50;99.90
51783;DHT22;37845;53.196;5.638;2023-03-01T11:48:05;6.90;99.90
51783;DHT22;37845;53.196;5.638;2023-03-01T11:50:39;6.90;99.90
51783;DHT22;37845;53.196;5.638;2023-03-01T11:53:23;7.00;99.90
51783;DHT22;37845;53.196;5.638;2023-03-01T11:56:24;7.00;99.90
51783;DHT22;37845;53.196;5.638;2023-03-01T12:07:00;7.20;99.90
51783;DHT22;37845;53.196;5.638;2023-03-01T12:14:55;7.30;99.90
51783;DHT22;37845;53.196;5.638;2023-03-01T12:20:37;7.40;99.90
51783;DHT22;37845;53.196;5.638;2023-03-01T12:23:44;7.40;99.90
51783;DHT22;37845;53.196;5.638;2023-03-01T12:26:25;8.90;99.90
51783;DHT22;37845;53.196;5.638;2023-03-01T12:49:22;7.60;99.90
51783;DHT22;37845;53.196;5.638;2023-03-01T12:51:30;7.70;99.90
51783;DHT22;37845;53.196;5.638;2023-03-01T12:53:59;7.70;99.90
51783;DHT22;37845;53.196;5.638;2023-03-01T12:56:32;7.80;99.90
51783;DHT22;37845;53.196;5.638;2023-03-01T13:02:14;7.90;99.90
51783;DHT22;37845;53.196;5.638;2023-03-01T13:07:42;8.00;99.90
51783;DHT22;37845;53.196;5.638;2023-03-01T13:10:26;8.80;99.90
51783;DHT22;37845;53.196;5.638;2023-03-01T13:17:54;8.10;99.90
51783;DHT22;37845;53.196;5.638;2023-03-01T13:23:12;8.10;99.90
51783;DHT22;37845;53.196;5.638;2023-03-01T13:26:04;8.10;99.90
51783;DHT22;37845;53.196;5.638;2023-03-01T13:28:46;8.10;99.90
51783;DHT22;37845;53.196;5.638;2023-03-01T13:33:49;8.10;99.90
51783;DHT22;37845;53.196;5.638;2023-03-01T13:38:57;8.10;99.90
51783;DHT22;37845;53.196;5.638;2023-03-01T13:49:48;8.20;99.90
51783;DHT22;37845;53.196;5.638;2023-03-01T13:52:37;8.20;99.90
51783;DHT22;37845;53.196;5.638;2023-03-01T13:55:47;8.20;99.90
51783;DHT22;37845;53.196;5.638;2023-03-01T13:58:30;8.20;99.90
51783;DHT22;37845;53.196;5.638;2023-03-01T14:01:07;8.20;99.90
51783;DHT22;37845;53.196;5.638;2023-03-01T14:03:41;8.20;99.90
51783;DHT22;37845;53.196;5.638;2023-03-01T14:06:12;8.20;99.90
51783;DHT22;37845;53.196;5.638;2023-03-01T14:08:38;8.70;99.90
51783;DHT22;37845;53.196;5.638;2023-03-01T14:13:48;8.20;99.90
51783;DHT22;37845;53.196;5.638;2023-03-01T14:16:44;8.20;99.90
51783;DHT22;37845;53.196;5.638;2023-03-01T14:19:17;8.20;99.90
51783;DHT22;37845;53.196;5.638;2023-03-01T14:21:44;8.20;99.90
51783;DHT22;37845;53.196;5.638;2023-03-01T14:24:21;8.30;99.90
51783;DHT22;37845;53.196;5.638;2023-03-01T14:26:49;8.20;99.90
51783;DHT22;37845;53.196;5.638;2023-03-01T14:29:53;8.30;99.90
51783;DHT22;37845;53.196;5.638;2023-03-01T14:32:22;8.30;99.90
51783;DHT22;37845;53.196;5.638;2023-03-01T14:34:50;8.60;99.90
51783;DHT22;37845;53.196;5.638;2023-03-01T14:39:41;8.40;99.90
51783;DHT22;37845;53.196;5.638;2023-03-01T14:42:07;8.40;99.90
51783;DHT22;37845;53.196;5.638;2023-03-01T14:44:33;9.20;99.90
51783;DHT22;37845;53.196;5.638;2023-03-01T14:47:03;8.40;99.90
51783;DHT22;37845;53.196;5.638;2023-03-01T14:49:30;8.40;99.90
51783;DHT22;37845;53.196;5.638;2023-03-01T14:52:06;8.30;99.90
51783;DHT22;37845;53.196;5.638;2023-03-01T14:54:42;8.30;99.90
51783;DHT22;37845;53.196;5.638;2023-03-01T14:57:15;8.40;99.90
51783;DHT22;37845;53.196;5.638;2023-03-01T14:59:42;8.40;99.90
51783;DHT22;37845;53.196;5.638;2023-03-01T15:02:17;8.30;99.90
51783;DHT22;37845;53.196;5.638;2023-03-01T15:04:51;8.30;99.90
51783;DHT22;37845;53.196;5.638;2023-03-01T15:07:17;8.30;99.90
51783;DHT22;37845;53.196;5.638;2023-03-01T15:09:44;8.30;99.90
51783;DHT22;37845;53.196;5.638;2023-03-01T15:14:58;8.20;99.90
51783;DHT22;37845;53.196;5.638;2023-03-01T15:17:34;8.20;99.90
51783;DHT22;37845;53.196;5.638;2023-03-01T15:20:22;8.20;99.90
51783;DHT22;37845;53.196;5.638;2023-03-01T15:22:53;8.20;99.90
51783;DHT22;37845;53.196;5.638;2023-03-01T15:25:22;8.20;99.90
51783;DHT22;37845;53.196;5.638;2023-03-01T15:27:52;8.20;99.90
51783;DHT22;37845;53.196;5.638;2023-03-01T15:30:34;8.10;99.90
51783;DHT22;37845;53.196;5.638;2023-03-01T15:33:33;8.10;99.90
51783;DHT22;37845;53.196;5.638;2023-03-01T15:36:29;8.10;99.90
51783;DHT22;37845;53.196;5.638;2023-03-01T15:38:58;9.30;99.90
51783;DHT22;37845;53.196;5.638;2023-03-01T15:41:46;8.80;99.90
51783;DHT22;37845;53.196;5.638;2023-03-01T15:44:34;7.60;99.90
51783;DHT22;37845;53.196;5.638;2023-03-01T15:47:01;8.10;99.90
51783;DHT22;37845;53.196;5.638;2023-03-01T15:49:39;8.00;99.90
51783;DHT22;37845;53.196;5.638;2023-03-01T15:52:17;8.00;99.90
51783;DHT22;37845;53.196;5.638;2023-03-01T15:54:44;8.00;99.90
51783;DHT22;37845;53.196;5.638;2023-03-01T15:57:14;8.00;99.90
51783;DHT22;37845;53.196;5.638;2023-03-01T15:59:41;7.90;99.90
51783;DHT22;37845;53.196;5.638;2023-03-01T16:02:11;7.90;99.90
51783;DHT22;37845;53.196;5.638;2023-03-01T16:04:39;7.90;99.90
51783;DHT22;37845;53.196;5.638;2023-03-01T16:07:05;7.80;99.90
51783;DHT22;37845;53.196;5.638;2023-03-01T16:09:30;7.80;99.90
51783;DHT22;37845;53.196;5.638;2023-03-01T16:11:56;7.80;99.90
51783;DHT22;37845;53.196;5.638;2023-03-01T16:14:22;7.70;99.90
51783;DHT22;37845;53.196;5.638;2023-03-01T16:16:48;7.70;99.90
51783;DHT22;37845;53.196;5.638;2023-03-01T16:19:15;7.70;99.90
51783;DHT22;37845;53.196;5.638;2023-03-01T16:21:42;7.90;99.90
51783;DHT22;37845;53.196;5.638;2023-03-01T16:24:09;7.60;99.90
51783;DHT22;37845;53.196;5.638;2023-03-01T16:26:38;7.50;99.90
51783;DHT22;37845;53.196;5.638;2023-03-01T16:29:04;7.50;99.90
51783;DHT22;37845;53.196;5.638;2023-03-01T16:31:33;7.50;99.90
51783;DHT22;37845;53.196;5.638;2023-03-01T16:37:19;7.30;99.90
51783;DHT22;37845;53.196;5.638;2023-03-01T16:39:44;7.20;99.90
51783;DHT22;37845;53.196;5.638;2023-03-01T16:42:10;7.20;99.90
51783;DHT22;37845;53.196;5.638;2023-03-01T16:44:36;7.20;99.90
51783;DHT22;37845;53.196;5.638;2023-03-01T16:47:02;7.10;99.90
51783;DHT22;37845;53.196;5.638;2023-03-01T16:49:27;8.00;99.90
51783;DHT22;37845;53.196;5.638;2023-03-01T16:51:54;7.00;99.90
51783;DHT22;37845;53.196;5.638;2023-03-01T16:54:19;7.00;99.90
51783;DHT22;37845;53.196;5.638;2023-03-01T16:56:45;6.90;99.90
51783;DHT22;37845;53.196;5.638;2023-03-01T16:59:11;6.90;99.90
51783;DHT22;37845;53.196;5.638;2023-03-01T17:01:37;6.20;99.90
51783;DHT22;37845;53.196;5.638;2023-03-01T17:04:05;6.80;99.90
51783;DHT22;37845;53.196;5.638;2023-03-01T17:06:33;8.00;99.90
51783;DHT22;37845;53.196;5.638;2023-03-01T17:08:59;6.80;99.90
51783;DHT22;37845;53.196;5.638;2023-03-01T17:11:25;6.70;99.90
51783;DHT22;37845;53.196;5.638;2023-03-01T17:13:51;7.50;99.90
51783;DHT22;37845;53.196;5.638;2023-03-01T17:16:18;6.60;99.90
51783;DHT22;37845;53.196;5.638;2023-03-01T17:18:45;6.60;99.90
51783;DHT22;37845;53.196;5.638;2023-03-01T17:21:11;7.40;99.90
51783;DHT22;37845;53.196;5.638;2023-03-01T17:23:39;7.50;99.90
51783;DHT22;37845;53.196;5.638;2023-03-01T17:26:05;6.40;99.90
51783;DHT22;37845;53.196;5.638;2023-03-01T17:28:31;6.40;99.90
51783;DHT22;37845;53.196;5.638;2023-03-01T17:30:59;6.40;99.90
51783;DHT22;37845;53.196;5.638;2023-03-01T17:33:25;6.30;99.90
51783;DHT22;37845;53.196;5.638;2023-03-01T17:35:51;6.20;99.90
51783;DHT22;37845;53.196;5.638;2023-03-01T17:38:17;6.20;99.90
51783;DHT22;37845;53.196;5.638;2023-03-01T17:40:44;6.20;99.90
51783;DHT22;37845;53.196;5.638;2023-03-01T17:43:13;6.20;99.90
51783;DHT22;37845;53.196;5.638;2023-03-01T17:45:39;6.10;99.90
51783;DHT22;37845;53.196;5.638;2023-03-01T17:48:06;6.60;99.90
51783;DHT22;37845;53.196;5.638;2023-03-01T17:50:32;6.10;99.90
51783;DHT22;37845;53.196;5.638;2023-03-01T17:52:58;6.10;99.90
51783;DHT22;37845;53.196;5.638;2023-03-01T17:55:24;7.20;99.90
51783;DHT22;37845;53.196;5.638;2023-03-01T17:57:50;6.00;99.90
51783;DHT22;37845;53.196;5.638;2023-03-01T18:00:16;5.90;99.90
51783;DHT22;37845;53.196;5.638;2023-03-01T18:02:43;5.90;99.90
51783;DHT22;37845;53.196;5.638;2023-03-01T18:05:09;5.90;99.90
51783;DHT22;37845;53.196;5.638;2023-03-01T18:07:38;5.90;99.90
51783;DHT22;37845;53.196;5.638;2023-03-01T18:10:04;5.80;99.90
51783;DHT22;37845;53.196;5.638;2023-03-01T18:12:30;5.70;99.90
51783;DHT22;37845;53.196;5.638;2023-03-01T18:14:56;6.20;99.90
51783;DHT22;37845;53.196;5.638;2023-03-01T18:17:23;6.30;99.90
51783;DHT22;37845;53.196;5.638;2023-03-01T18:19:50;5.60;99.90
51783;DHT22;37845;53.196;5.638;2023-03-01T18:22:15;5.60;99.90
51783;DHT22;37845;53.196;5.638;2023-03-01T18:24:41;5.50;99.90